Pine Lake, Minnesota
Current Conditions -  °F | °C
As of 10:55 AM on Thursday 30 Oct 2014 (Local Time) from KFSE Reporting Station
Overcast Overcast  
Wind Chill: 25°   Ceiling: 2800
Heat Index: 34°   Visibility: 10mi
Dew Point: 30°   Wind: 13mph
Humidity: 87%   Direction: 350°N
Pressure: 30.19"   Gusts: 18mph
Location:  47.8469°N, 95.4815°W
Report Text: KFSE 301555Z AUTO 35011G16KT 10SM OVC028 01/M01 A3019 RMK AO2
Loading
Personal Weather Stations






























Interactive Weather Map
Tropical Storm Tracking
New forecast layout! Learn more

10-Day Weather Forecast

Advertisements
Track Severe Weather on mobile